sensor_id;sensor_type;location;lat;lon;timestamp;temperature;humidity
44886;DHT22;36669;51.428;21.162;2022-09-28T00:01:30;10.50;99.90
44886;DHT22;36669;51.428;21.162;2022-09-28T00:03:55;10.50;99.90
44886;DHT22;36669;51.428;21.162;2022-09-28T00:06:23;10.50;99.90
44886;DHT22;36669;51.428;21.162;2022-09-28T00:08:49;10.50;99.90
44886;DHT22;36669;51.428;21.162;2022-09-28T00:11:15;10.40;99.90
44886;DHT22;36669;51.428;21.162;2022-09-28T00:13:42;10.40;99.90
44886;DHT22;36669;51.428;21.162;2022-09-28T00:16:11;10.40;99.90
44886;DHT22;36669;51.428;21.162;2022-09-28T00:18:37;10.40;99.90
44886;DHT22;36669;51.428;21.162;2022-09-28T00:21:06;10.40;99.90
44886;DHT22;36669;51.428;21.162;2022-09-28T00:23:33;10.50;99.90
44886;DHT22;36669;51.428;21.162;2022-09-28T00:26:03;10.40;99.90
44886;DHT22;36669;51.428;21.162;2022-09-28T00:28:29;10.40;99.90
44886;DHT22;36669;51.428;21.162;2022-09-28T00:30:55;10.40;99.90
44886;DHT22;36669;51.428;21.162;2022-09-28T00:33:21;10.40;99.90
44886;DHT22;36669;51.428;21.162;2022-09-28T00:35:53;10.30;99.90
44886;DHT22;36669;51.428;21.162;2022-09-28T00:38:18;10.30;99.90
44886;DHT22;36669;51.428;21.162;2022-09-28T00:40:44;10.30;99.90
44886;DHT22;36669;51.428;21.162;2022-09-28T00:43:19;10.30;99.90
44886;DHT22;36669;51.428;21.162;2022-09-28T00:45:58;10.30;99.90
44886;DHT22;36669;51.428;21.162;2022-09-28T00:48:27;10.20;99.90
44886;DHT22;36669;51.428;21.162;2022-09-28T00:50:54;10.20;99.90
44886;DHT22;36669;51.428;21.162;2022-09-28T00:53:25;10.20;99.90
44886;DHT22;36669;51.428;21.162;2022-09-28T00:56:00;10.20;99.90
44886;DHT22;36669;51.428;21.162;2022-09-28T00:58:29;10.20;99.90
44886;DHT22;36669;51.428;21.162;2022-09-28T01:00:57;10.20;99.90
44886;DHT22;36669;51.428;21.162;2022-09-28T01:03:24;10.20;99.90
44886;DHT22;36669;51.428;21.162;2022-09-28T01:05:51;10.20;99.90
44886;DHT22;36669;51.428;21.162;2022-09-28T01:08:18;10.20;99.90
44886;DHT22;36669;51.428;21.162;2022-09-28T01:10:49;10.20;99.90
44886;DHT22;36669;51.428;21.162;2022-09-28T01:13:15;10.20;99.90
44886;DHT22;36669;51.428;21.162;2022-09-28T01:21:24;10.20;99.90
44886;DHT22;36669;51.428;21.162;2022-09-28T01:31:55;10.20;99.90
44886;DHT22;36669;51.428;21.162;2022-09-28T01:34:40;10.20;99.90
44886;DHT22;36669;51.428;21.162;2022-09-28T01:37:10;10.20;99.90
44886;DHT22;36669;51.428;21.162;2022-09-28T01:39:42;10.20;99.90
44886;DHT22;36669;51.428;21.162;2022-09-28T01:42:15;10.20;99.90
44886;DHT22;36669;51.428;21.162;2022-09-28T01:44:47;10.20;99.90
44886;DHT22;36669;51.428;21.162;2022-09-28T01:47:18;10.20;99.90
44886;DHT22;36669;51.428;21.162;2022-09-28T01:49:48;10.20;99.90
44886;DHT22;36669;51.428;21.162;2022-09-28T01:52:28;10.20;99.90
44886;DHT22;36669;51.428;21.162;2022-09-28T01:55:19;10.20;99.90
44886;DHT22;36669;51.428;21.162;2022-09-28T01:57:55;10.20;99.90
44886;DHT22;36669;51.428;21.162;2022-09-28T02:00:23;10.20;99.90
44886;DHT22;36669;51.428;21.162;2022-09-28T02:03:01;10.20;99.90
44886;DHT22;36669;51.428;21.162;2022-09-28T02:05:39;10.20;99.90
44886;DHT22;36669;51.428;21.162;2022-09-28T02:08:33;10.20;99.90
44886;DHT22;36669;51.428;21.162;2022-09-28T02:11:14;10.20;99.90
44886;DHT22;36669;51.428;21.162;2022-09-28T02:13:46;10.20;99.90
44886;DHT22;36669;51.428;21.162;2022-09-28T02:18:44;10.20;99.90
44886;DHT22;36669;51.428;21.162;2022-09-28T02:21:15;10.30;99.90
44886;DHT22;36669;51.428;21.162;2022-09-28T02:23:51;10.30;99.90
44886;DHT22;36669;51.428;21.162;2022-09-28T02:26:22;10.30;99.90
44886;DHT22;36669;51.428;21.162;2022-09-28T02:28:49;10.30;99.90
44886;DHT22;36669;51.428;21.162;2022-09-28T02:31:14;10.30;99.90
44886;DHT22;36669;51.428;21.162;2022-09-28T02:33:42;10.30;99.90
44886;DHT22;36669;51.428;21.162;2022-09-28T02:36:08;10.30;99.90
44886;DHT22;36669;51.428;21.162;2022-09-28T02:38:35;10.30;99.90
44886;DHT22;36669;51.428;21.162;2022-09-28T02:44:18;10.30;99.90
44886;DHT22;36669;51.428;21.162;2022-09-28T02:55:19;10.30;99.90
44886;DHT22;36669;51.428;21.162;2022-09-28T03:00:30;10.30;99.90
44886;DHT22;36669;51.428;21.162;2022-09-28T03:03:39;10.30;99.90
44886;DHT22;36669;51.428;21.162;2022-09-28T03:06:14;10.30;99.90
44886;DHT22;36669;51.428;21.162;2022-09-28T03:09:32;10.30;99.90
44886;DHT22;36669;51.428;21.162;2022-09-28T03:11:51;10.30;99.90
44886;DHT22;36669;51.428;21.162;2022-09-28T03:14:18;10.30;99.90
44886;DHT22;36669;51.428;21.162;2022-09-28T03:16:45;10.30;99.90
44886;DHT22;36669;51.428;21.162;2022-09-28T03:19:15;10.30;99.90
44886;DHT22;36669;51.428;21.162;2022-09-28T03:21:41;10.30;99.90
44886;DHT22;36669;51.428;21.162;2022-09-28T03:24:07;10.20;99.90
44886;DHT22;36669;51.428;21.162;2022-09-28T03:26:33;10.20;99.90
44886;DHT22;36669;51.428;21.162;2022-09-28T03:28:58;10.20;99.90
44886;DHT22;36669;51.428;21.162;2022-09-28T03:31:24;10.20;99.90
44886;DHT22;36669;51.428;21.162;2022-09-28T03:33:52;10.30;99.90
44886;DHT22;36669;51.428;21.162;2022-09-28T03:36:18;10.20;99.90
44886;DHT22;36669;51.428;21.162;2022-09-28T03:38:43;10.20;99.90
44886;DHT22;36669;51.428;21.162;2022-09-28T03:41:09;10.20;99.90
44886;DHT22;36669;51.428;21.162;2022-09-28T03:43:34;10.20;99.90
44886;DHT22;36669;51.428;21.162;2022-09-28T03:46:01;10.20;99.90
44886;DHT22;36669;51.428;21.162;2022-09-28T03:48:31;10.20;99.90
44886;DHT22;36669;51.428;21.162;2022-09-28T03:50:58;10.20;99.90
44886;DHT22;36669;51.428;21.162;2022-09-28T03:53:25;10.10;99.90
44886;DHT22;36669;51.428;21.162;2022-09-28T03:55:51;10.10;99.90
44886;DHT22;36669;51.428;21.162;2022-09-28T03:58:16;10.20;99.90
44886;DHT22;36669;51.428;21.162;2022-09-28T04:00:42;10.20;99.90
44886;DHT22;36669;51.428;21.162;2022-09-28T04:03:08;10.10;99.90
44886;DHT22;36669;51.428;21.162;2022-09-28T04:05:33;10.10;99.90
44886;DHT22;36669;51.428;21.162;2022-09-28T04:07:59;10.00;99.90
44886;DHT22;36669;51.428;21.162;2022-09-28T04:10:25;10.00;99.90
44886;DHT22;36669;51.428;21.162;2022-09-28T04:12:55;9.90;99.90
44886;DHT22;36669;51.428;21.162;2022-09-28T04:15:21;9.90;99.90
44886;DHT22;36669;51.428;21.162;2022-09-28T04:17:47;9.90;99.90
44886;DHT22;36669;51.428;21.162;2022-09-28T04:20:13;9.90;99.90
44886;DHT22;36669;51.428;21.162;2022-09-28T04:22:38;9.90;99.90
44886;DHT22;36669;51.428;21.162;2022-09-28T04:25:04;9.80;99.90
44886;DHT22;36669;51.428;21.162;2022-09-28T04:27:30;9.90;99.90
44886;DHT22;36669;51.428;21.162;2022-09-28T04:29:55;9.80;99.90
44886;DHT22;36669;51.428;21.162;2022-09-28T04:32:21;9.80;99.90
44886;DHT22;36669;51.428;21.162;2022-09-28T04:34:46;9.70;99.90
44886;DHT22;36669;51.428;21.162;2022-09-28T04:37:12;9.70;99.90
44886;DHT22;36669;51.428;21.162;2022-09-28T04:39:38;9.70;99.90
44886;DHT22;36669;51.428;21.162;2022-09-28T04:42:03;9.60;99.90
44886;DHT22;36669;51.428;21.162;2022-09-28T04:44:29;9.60;99.90
44886;DHT22;36669;51.428;21.162;2022-09-28T04:46:54;9.60;99.90
44886;DHT22;36669;51.428;21.162;2022-09-28T04:49:20;9.60;99.90
44886;DHT22;36669;51.428;21.162;2022-09-28T04:51:45;9.60;99.90
44886;DHT22;36669;51.428;21.162;2022-09-28T04:54:11;9.60;99.90
44886;DHT22;36669;51.428;21.162;2022-09-28T04:56:36;9.50;99.90
44886;DHT22;36669;51.428;21.162;2022-09-28T04:59:02;9.50;99.90
44886;DHT22;36669;51.428;21.162;2022-09-28T05:01:27;9.50;99.90
44886;DHT22;36669;51.428;21.162;2022-09-28T05:03:53;9.50;99.90
44886;DHT22;36669;51.428;21.162;2022-09-28T05:06:18;9.50;99.90
44886;DHT22;36669;51.428;21.162;2022-09-28T05:08:44;9.50;99.90
44886;DHT22;36669;51.428;21.162;2022-09-28T05:11:11;9.50;99.90
44886;DHT22;36669;51.428;21.162;2022-09-28T05:13:44;9.40;99.90
44886;DHT22;36669;51.428;21.162;2022-09-28T05:16:12;9.50;99.90
44886;DHT22;36669;51.428;21.162;2022-09-28T05:18:38;9.40;99.90
44886;DHT22;36669;51.428;21.162;2022-09-28T05:21:09;9.40;99.90
44886;DHT22;36669;51.428;21.162;2022-09-28T05:23:34;9.40;99.90
44886;DHT22;36669;51.428;21.162;2022-09-28T05:26:00;9.40;99.90
44886;DHT22;36669;51.428;21.162;2022-09-28T05:28:28;9.40;99.90
44886;DHT22;36669;51.428;21.162;2022-09-28T05:31:01;9.40;99.90
44886;DHT22;36669;51.428;21.162;2022-09-28T05:33:27;9.30;99.90
44886;DHT22;36669;51.428;21.162;2022-09-28T05:35:53;9.40;99.90
44886;DHT22;36669;51.428;21.162;2022-09-28T05:38:18;9.50;99.90
44886;DHT22;36669;51.428;21.162;2022-09-28T05:40:44;9.40;99.90
44886;DHT22;36669;51.428;21.162;2022-09-28T05:43:10;9.50;99.90
44886;DHT22;36669;51.428;21.162;2022-09-28T05:45:35;9.50;99.90
44886;DHT22;36669;51.428;21.162;2022-09-28T05:48:01;9.50;99.90
44886;DHT22;36669;51.428;21.162;2022-09-28T05:50:26;9.50;99.90
44886;DHT22;36669;51.428;21.162;2022-09-28T05:53:06;9.50;99.90
44886;DHT22;36669;51.428;21.162;2022-09-28T05:55:32;9.50;99.90
44886;DHT22;36669;51.428;21.162;2022-09-28T05:57:59;9.50;99.90
44886;DHT22;36669;51.428;21.162;2022-09-28T06:00:26;9.60;99.90
44886;DHT22;36669;51.428;21.162;2022-09-28T06:03:00;9.60;99.90
44886;DHT22;36669;51.428;21.162;2022-09-28T06:05:27;9.60;99.90
44886;DHT22;36669;51.428;21.162;2022-09-28T06:07:56;9.60;99.90
44886;DHT22;36669;51.428;21.162;2022-09-28T06:10:26;9.60;99.90
44886;DHT22;36669;51.428;21.162;2022-09-28T06:12:55;9.60;99.90
44886;DHT22;36669;51.428;21.162;2022-09-28T06:15:23;9.60;99.90
44886;DHT22;36669;51.428;21.162;2022-09-28T06:17:55;9.60;99.90
44886;DHT22;36669;51.428;21.162;2022-09-28T06:20:20;9.50;99.90
44886;DHT22;36669;51.428;21.162;2022-09-28T06:22:50;9.60;99.90
44886;DHT22;36669;51.428;21.162;2022-09-28T06:25:15;9.70;99.90
44886;DHT22;36669;51.428;21.162;2022-09-28T06:27:41;9.80;99.90
44886;DHT22;36669;51.428;21.162;2022-09-28T06:30:06;9.90;99.90
44886;DHT22;36669;51.428;21.162;2022-09-28T06:32:32;9.90;99.90
44886;DHT22;36669;51.428;21.162;2022-09-28T06:34:57;9.90;99.90
44886;DHT22;36669;51.428;21.162;2022-09-28T06:37:23;9.90;99.90
44886;DHT22;36669;51.428;21.162;2022-09-28T06:39:48;10.00;99.90
44886;DHT22;36669;51.428;21.162;2022-09-28T06:42:14;10.00;99.90
44886;DHT22;36669;51.428;21.162;2022-09-28T06:44:39;10.00;99.90
44886;DHT22;36669;51.428;21.162;2022-09-28T06:47:05;10.10;99.90
44886;DHT22;36669;51.428;21.162;2022-09-28T06:49:30;10.00;99.90
44886;DHT22;36669;51.428;21.162;2022-09-28T06:51:56;10.20;99.90
44886;DHT22;36669;51.428;21.162;2022-09-28T06:54:21;10.20;99.90
44886;DHT22;36669;51.428;21.162;2022-09-28T06:56:47;10.30;99.90
44886;DHT22;36669;51.428;21.162;2022-09-28T06:59:12;10.30;99.90
44886;DHT22;36669;51.428;21.162;2022-09-28T07:01:38;10.30;99.90
44886;DHT22;36669;51.428;21.162;2022-09-28T07:04:03;10.50;99.90
44886;DHT22;36669;51.428;21.162;2022-09-28T07:06:29;10.50;99.90
44886;DHT22;36669;51.428;21.162;2022-09-28T07:08:54;10.40;99.90
44886;DHT22;36669;51.428;21.162;2022-09-28T07:11:20;10.50;99.90
44886;DHT22;36669;51.428;21.162;2022-09-28T07:13:45;10.50;99.90
44886;DHT22;36669;51.428;21.162;2022-09-28T07:16:11;10.50;99.90
44886;DHT22;36669;51.428;21.162;2022-09-28T07:18:36;10.40;99.90
44886;DHT22;36669;51.428;21.162;2022-09-28T07:21:02;10.30;99.90
44886;DHT22;36669;51.428;21.162;2022-09-28T07:23:27;10.20;99.90
44886;DHT22;36669;51.428;21.162;2022-09-28T07:25:53;10.30;99.90
44886;DHT22;36669;51.428;21.162;2022-09-28T07:28:18;10.30;99.90
44886;DHT22;36669;51.428;21.162;2022-09-28T07:30:44;10.40;99.90
44886;DHT22;36669;51.428;21.162;2022-09-28T07:33:11;10.30;99.90
44886;DHT22;36669;51.428;21.162;2022-09-28T07:35:37;10.40;99.90
44886;DHT22;36669;51.428;21.162;2022-09-28T07:38:05;10.40;99.90
44886;DHT22;36669;51.428;21.162;2022-09-28T07:40:32;10.50;99.90
44886;DHT22;36669;51.428;21.162;2022-09-28T07:43:05;10.60;99.90
44886;DHT22;36669;51.428;21.162;2022-09-28T07:45:30;10.60;99.90
44886;DHT22;36669;51.428;21.162;2022-09-28T07:47:56;10.70;99.90
44886;DHT22;36669;51.428;21.162;2022-09-28T07:50:21;10.70;99.90
44886;DHT22;36669;51.428;21.162;2022-09-28T07:52:47;10.70;99.90
44886;DHT22;36669;51.428;21.162;2022-09-28T07:55:13;10.70;99.90
44886;DHT22;36669;51.428;21.162;2022-09-28T07:57:38;10.70;99.90
44886;DHT22;36669;51.428;21.162;2022-09-28T08:00:05;10.70;99.90
44886;DHT22;36669;51.428;21.162;2022-09-28T08:02:30;10.60;99.90
44886;DHT22;36669;51.428;21.162;2022-09-28T08:04:56;10.70;99.90
44886;DHT22;36669;51.428;21.162;2022-09-28T08:07:21;10.90;99.90
44886;DHT22;36669;51.428;21.162;2022-09-28T08:09:47;11.00;99.90
44886;DHT22;36669;51.428;21.162;2022-09-28T08:12:13;11.00;99.90
44886;DHT22;36669;51.428;21.162;2022-09-28T08:14:39;11.10;99.90
44886;DHT22;36669;51.428;21.162;2022-09-28T08:17:05;11.20;99.90
44886;DHT22;36669;51.428;21.162;2022-09-28T08:19:32;11.10;99.90
44886;DHT22;36669;51.428;21.162;2022-09-28T08:21:57;11.30;99.90
44886;DHT22;36669;51.428;21.162;2022-09-28T08:24:23;11.30;99.90
44886;DHT22;36669;51.428;21.162;2022-09-28T08:26:48;11.40;99.90
44886;DHT22;36669;51.428;21.162;2022-09-28T08:29:14;11.50;99.90
44886;DHT22;36669;51.428;21.162;2022-09-28T08:31:39;11.60;99.90
44886;DHT22;36669;51.428;21.162;2022-09-28T08:34:05;11.40;99.90
44886;DHT22;36669;51.428;21.162;2022-09-28T08:36:30;11.40;99.90
44886;DHT22;36669;51.428;21.162;2022-09-28T08:38:56;11.50;99.90
44886;DHT22;36669;51.428;21.162;2022-09-28T08:46:41;11.50;99.90
44886;DHT22;36669;51.428;21.162;2022-09-28T08:49:15;11.40;99.90
44886;DHT22;36669;51.428;21.162;2022-09-28T08:52:09;11.50;99.90
44886;DHT22;36669;51.428;21.162;2022-09-28T08:54:43;11.50;99.90
44886;DHT22;36669;51.428;21.162;2022-09-28T08:57:18;11.80;99.90
44886;DHT22;36669;51.428;21.162;2022-09-28T08:59:56;12.10;99.90
44886;DHT22;36669;51.428;21.162;2022-09-28T09:04:55;12.20;99.90
44886;DHT22;36669;51.428;21.162;2022-09-28T09:16:07;12.60;99.90
44886;DHT22;36669;51.428;21.162;2022-09-28T09:18:46;12.70;99.90
44886;DHT22;36669;51.428;21.162;2022-09-28T09:21:39;12.80;99.90
44886;DHT22;36669;51.428;21.162;2022-09-28T09:24:24;12.60;99.90
44886;DHT22;36669;51.428;21.162;2022-09-28T09:26:59;12.60;99.90
44886;DHT22;36669;51.428;21.162;2022-09-28T09:29:47;12.50;99.90
44886;DHT22;36669;51.428;21.162;2022-09-28T09:32:50;12.50;99.90
44886;DHT22;36669;51.428;21.162;2022-09-28T09:41:34;12.60;99.90
44886;DHT22;36669;51.428;21.162;2022-09-28T09:44:26;12.90;99.90
44886;DHT22;36669;51.428;21.162;2022-09-28T09:46:59;12.90;99.90
44886;DHT22;36669;51.428;21.162;2022-09-28T09:49:35;12.90;99.90
44886;DHT22;36669;51.428;21.162;2022-09-28T09:52:11;12.70;99.90
44886;DHT22;36669;51.428;21.162;2022-09-28T09:57:13;12.80;99.90
44886;DHT22;36669;51.428;21.162;2022-09-28T09:59:41;12.80;99.90
44886;DHT22;36669;51.428;21.162;2022-09-28T10:02:23;12.90;99.90
44886;DHT22;36669;51.428;21.162;2022-09-28T10:04:58;12.70;99.90
44886;DHT22;36669;51.428;21.162;2022-09-28T10:07:36;12.70;99.90
44886;DHT22;36669;51.428;21.162;2022-09-28T10:10:32;12.70;99.90
44886;DHT22;36669;51.428;21.162;2022-09-28T10:12:56;12.60;99.90
44886;DHT22;36669;51.428;21.162;2022-09-28T10:15:35;12.50;99.90
44886;DHT22;36669;51.428;21.162;2022-09-28T10:18:05;12.60;99.90
44886;DHT22;36669;51.428;21.162;2022-09-28T10:20:36;12.60;99.90
44886;DHT22;36669;51.428;21.162;2022-09-28T10:23:04;12.70;99.90
44886;DHT22;36669;51.428;21.162;2022-09-28T10:25:32;12.60;99.90
44886;DHT22;36669;51.428;21.162;2022-09-28T10:28:02;12.70;99.90
44886;DHT22;36669;51.428;21.162;2022-09-28T10:30:34;12.80;99.90
44886;DHT22;36669;51.428;21.162;2022-09-28T10:33:01;12.90;99.90
44886;DHT22;36669;51.428;21.162;2022-09-28T10:35:39;13.00;99.90
44886;DHT22;36669;51.428;21.162;2022-09-28T10:38:14;13.20;99.90
44886;DHT22;36669;51.428;21.162;2022-09-28T10:40:57;13.30;99.90
44886;DHT22;36669;51.428;21.162;2022-09-28T10:43:31;13.40;99.90
44886;DHT22;36669;51.428;21.162;2022-09-28T10:46:01;13.40;99.90
44886;DHT22;36669;51.428;21.162;2022-09-28T10:48:31;13.60;99.90
44886;DHT22;36669;51.428;21.162;2022-09-28T10:51:03;13.80;99.90
44886;DHT22;36669;51.428;21.162;2022-09-28T10:53:29;14.30;99.90
44886;DHT22;36669;51.428;21.162;2022-09-28T10:56:01;14.60;99.90
44886;DHT22;36669;51.428;21.162;2022-09-28T10:58:35;14.60;99.90
44886;DHT22;36669;51.428;21.162;2022-09-28T11:01:04;14.90;99.90
44886;DHT22;36669;51.428;21.162;2022-09-28T11:03:30;15.20;99.90
44886;DHT22;36669;51.428;21.162;2022-09-28T11:06:02;15.20;99.90
44886;DHT22;36669;51.428;21.162;2022-09-28T11:08:36;15.20;99.90
44886;DHT22;36669;51.428;21.162;2022-09-28T11:11:06;15.20;99.90
44886;DHT22;36669;51.428;21.162;2022-09-28T11:13:44;15.10;99.90
44886;DHT22;36669;51.428;21.162;2022-09-28T11:18:49;15.20;99.90
44886;DHT22;36669;51.428;21.162;2022-09-28T11:21:19;15.70;99.90
44886;DHT22;36669;51.428;21.162;2022-09-28T11:24:20;16.00;99.90
44886;DHT22;36669;51.428;21.162;2022-09-28T11:26:51;16.50;99.90
44886;DHT22;36669;51.428;21.162;2022-09-28T11:29:29;16.60;99.90
44886;DHT22;36669;51.428;21.162;2022-09-28T11:32:00;16.70;99.90
44886;DHT22;36669;51.428;21.162;2022-09-28T11:34:34;17.10;99.90
44886;DHT22;36669;51.428;21.162;2022-09-28T11:37:29;17.40;99.90
44886;DHT22;36669;51.428;21.162;2022-09-28T11:48:22;18.10;99.90
44886;DHT22;36669;51.428;21.162;2022-09-28T11:50:52;17.30;99.90
44886;DHT22;36669;51.428;21.162;2022-09-28T11:53:46;17.00;99.90
44886;DHT22;36669;51.428;21.162;2022-09-28T11:56:30;17.70;99.90
44886;DHT22;36669;51.428;21.162;2022-09-28T12:01:42;16.90;99.90
44886;DHT22;36669;51.428;21.162;2022-09-28T12:04:32;16.50;99.90
44886;DHT22;36669;51.428;21.162;2022-09-28T12:07:12;16.20;99.90
44886;DHT22;36669;51.428;21.162;2022-09-28T12:12:38;16.40;99.90
44886;DHT22;36669;51.428;21.162;2022-09-28T12:15:14;16.50;99.90
44886;DHT22;36669;51.428;21.162;2022-09-28T12:18:10;17.10;99.90
44886;DHT22;36669;51.428;21.162;2022-09-28T12:20:41;17.20;99.90
44886;DHT22;36669;51.428;21.162;2022-09-28T12:23:21;17.40;99.90
44886;DHT22;36669;51.428;21.162;2022-09-28T12:25:57;17.10;99.90
44886;DHT22;36669;51.428;21.162;2022-09-28T12:28:38;17.00;99.90
44886;DHT22;36669;51.428;21.162;2022-09-28T12:31:29;16.40;99.90
44886;DHT22;36669;51.428;21.162;2022-09-28T12:33:56;16.40;99.90
44886;DHT22;36669;51.428;21.162;2022-09-28T12:55:06;17.20;99.90
44886;DHT22;36669;51.428;21.162;2022-09-28T13:00:21;18.00;99.90
44886;DHT22;36669;51.428;21.162;2022-09-28T13:03:13;17.30;99.90
44886;DHT22;36669;51.428;21.162;2022-09-28T13:06:12;16.50;99.90
44886;DHT22;36669;51.428;21.162;2022-09-28T13:20:06;15.70;99.90
44886;DHT22;36669;51.428;21.162;2022-09-28T13:25:28;17.20;99.90
44886;DHT22;36669;51.428;21.162;2022-09-28T13:28:00;17.00;99.90
44886;DHT22;36669;51.428;21.162;2022-09-28T13:30:26;17.70;99.90
44886;DHT22;36669;51.428;21.162;2022-09-28T13:32:54;18.20;99.90
44886;DHT22;36669;51.428;21.162;2022-09-28T13:35:22;18.30;99.80
44886;DHT22;36669;51.428;21.162;2022-09-28T13:57:55;17.80;96.70
44886;DHT22;36669;51.428;21.162;2022-09-28T14:00:37;18.10;97.50
44886;DHT22;36669;51.428;21.162;2022-09-28T14:08:31;16.00;99.90
44886;DHT22;36669;51.428;21.162;2022-09-28T14:16:28;18.20;99.10
44886;DHT22;36669;51.428;21.162;2022-09-28T14:19:38;19.00;97.70
44886;DHT22;36669;51.428;21.162;2022-09-28T14:27:29;18.90;94.20
44886;DHT22;36669;51.428;21.162;2022-09-28T14:30:18;18.40;95.00
44886;DHT22;36669;51.428;21.162;2022-09-28T14:35:38;19.10;93.90
44886;DHT22;36669;51.428;21.162;2022-09-28T14:38:13;18.10;93.80
44886;DHT22;36669;51.428;21.162;2022-09-28T14:53:52;16.20;99.60
44886;DHT22;36669;51.428;21.162;2022-09-28T14:56:18;16.80;99.30
44886;DHT22;36669;51.428;21.162;2022-09-28T14:58:44;17.90;97.60
44886;DHT22;36669;51.428;21.162;2022-09-28T15:01:21;18.60;96.30
44886;DHT22;36669;51.428;21.162;2022-09-28T15:03:58;18.80;95.60
44886;DHT22;36669;51.428;21.162;2022-09-28T15:06:25;18.50;95.60
44886;DHT22;36669;51.428;21.162;2022-09-28T15:08:50;17.80;95.90
44886;DHT22;36669;51.428;21.162;2022-09-28T15:11:19;17.50;96.90
44886;DHT22;36669;51.428;21.162;2022-09-28T15:13:46;18.00;97.00
44886;DHT22;36669;51.428;21.162;2022-09-28T15:16:13;18.90;95.70
44886;DHT22;36669;51.428;21.162;2022-09-28T15:21:20;21.00;91.30
44886;DHT22;36669;51.428;21.162;2022-09-28T15:23:46;21.00;90.40
44886;DHT22;36669;51.428;21.162;2022-09-28T15:26:24;20.40;89.30
44886;DHT22;36669;51.428;21.162;2022-09-28T15:28:50;19.50;90.50
44886;DHT22;36669;51.428;21.162;2022-09-28T15:31:18;18.60;91.60
44886;DHT22;36669;51.428;21.162;2022-09-28T15:33:44;17.80;92.80
44886;DHT22;36669;51.428;21.162;2022-09-28T15:39:00;16.70;95.50
44886;DHT22;36669;51.428;21.162;2022-09-28T15:41:27;16.00;97.70
44886;DHT22;36669;51.428;21.162;2022-09-28T15:46:39;15.30;99.90
44886;DHT22;36669;51.428;21.162;2022-09-28T15:49:05;15.00;99.90
44886;DHT22;36669;51.428;21.162;2022-09-28T15:51:46;15.00;99.90
44886;DHT22;36669;51.428;21.162;2022-09-28T15:54:16;14.90;99.90
44886;DHT22;36669;51.428;21.162;2022-09-28T15:56:54;14.70;99.90
44886;DHT22;36669;51.428;21.162;2022-09-28T15:59:29;14.50;99.90
44886;DHT22;36669;51.428;21.162;2022-09-28T16:02:22;14.30;99.90
44886;DHT22;36669;51.428;21.162;2022-09-28T16:09:56;13.90;99.90
44886;DHT22;36669;51.428;21.162;2022-09-28T16:12:23;13.80;99.90
44886;DHT22;36669;51.428;21.162;2022-09-28T16:14:51;13.50;99.90
44886;DHT22;36669;51.428;21.162;2022-09-28T16:17:28;13.40;99.90
44886;DHT22;36669;51.428;21.162;2022-09-28T16:19:54;13.30;99.90
44886;DHT22;36669;51.428;21.162;2022-09-28T16:22:20;13.30;99.90
44886;DHT22;36669;51.428;21.162;2022-09-28T16:24:57;13.20;99.90
44886;DHT22;36669;51.428;21.162;2022-09-28T16:27:44;13.10;99.90
44886;DHT22;36669;51.428;21.162;2022-09-28T16:30:29;13.10;99.90
44886;DHT22;36669;51.428;21.162;2022-09-28T16:33:01;13.10;99.90
44886;DHT22;36669;51.428;21.162;2022-09-28T16:38:15;13.00;99.90
44886;DHT22;36669;51.428;21.162;2022-09-28T16:40:42;13.00;99.90
44886;DHT22;36669;51.428;21.162;2022-09-28T16:43:34;13.00;99.90
44886;DHT22;36669;51.428;21.162;2022-09-28T16:46:05;13.00;99.90
44886;DHT22;36669;51.428;21.162;2022-09-28T16:48:34;13.00;99.90
44886;DHT22;36669;51.428;21.162;2022-09-28T16:51:01;12.90;99.90
44886;DHT22;36669;51.428;21.162;2022-09-28T16:53:26;12.80;99.90
44886;DHT22;36669;51.428;21.162;2022-09-28T16:55:52;12.70;99.90
44886;DHT22;36669;51.428;21.162;2022-09-28T16:58:17;12.60;99.90
44886;DHT22;36669;51.428;21.162;2022-09-28T17:00:43;12.60;99.90
44886;DHT22;36669;51.428;21.162;2022-09-28T17:03:13;12.60;99.90
44886;DHT22;36669;51.428;21.162;2022-09-28T17:05:39;12.60;99.90
44886;DHT22;36669;51.428;21.162;2022-09-28T17:08:04;12.60;99.90
44886;DHT22;36669;51.428;21.162;2022-09-28T17:10:38;12.60;99.90
44886;DHT22;36669;51.428;21.162;2022-09-28T17:13:04;12.50;99.90
44886;DHT22;36669;51.428;21.162;2022-09-28T17:15:31;12.60;99.90
44886;DHT22;36669;51.428;21.162;2022-09-28T17:17:56;12.50;99.90
44886;DHT22;36669;51.428;21.162;2022-09-28T17:20:27;12.50;99.90
44886;DHT22;36669;51.428;21.162;2022-09-28T17:22:53;12.40;99.90
44886;DHT22;36669;51.428;21.162;2022-09-28T17:25:22;12.40;99.90
44886;DHT22;36669;51.428;21.162;2022-09-28T17:27:49;12.30;99.90
44886;DHT22;36669;51.428;21.162;2022-09-28T17:30:17;12.30;99.90
44886;DHT22;36669;51.428;21.162;2022-09-28T17:32:43;12.30;99.90
44886;DHT22;36669;51.428;21.162;2022-09-28T17:35:09;12.30;99.90
44886;DHT22;36669;51.428;21.162;2022-09-28T17:37:34;12.30;99.90
44886;DHT22;36669;51.428;21.162;2022-09-28T17:40:00;12.30;99.90
44886;DHT22;36669;51.428;21.162;2022-09-28T17:42:25;12.30;99.90
44886;DHT22;36669;51.428;21.162;2022-09-28T17:44:51;12.30;99.90
44886;DHT22;36669;51.428;21.162;2022-09-28T17:47:16;12.20;99.90
44886;DHT22;36669;51.428;21.162;2022-09-28T17:49:42;12.20;99.90
44886;DHT22;36669;51.428;21.162;2022-09-28T17:52:08;12.30;99.90
44886;DHT22;36669;51.428;21.162;2022-09-28T17:54:33;12.20;99.90
44886;DHT22;36669;51.428;21.162;2022-09-28T17:56:59;12.20;99.90
44886;DHT22;36669;51.428;21.162;2022-09-28T17:59:24;12.20;99.90
44886;DHT22;36669;51.428;21.162;2022-09-28T18:01:50;12.20;99.90
44886;DHT22;36669;51.428;21.162;2022-09-28T18:04:16;12.20;99.90
44886;DHT22;36669;51.428;21.162;2022-09-28T18:06:42;12.20;99.90
44886;DHT22;36669;51.428;21.162;2022-09-28T18:09:12;12.20;99.90
44886;DHT22;36669;51.428;21.162;2022-09-28T18:11:40;12.20;99.90
44886;DHT22;36669;51.428;21.162;2022-09-28T18:14:07;12.20;99.90
44886;DHT22;36669;51.428;21.162;2022-09-28T18:16:33;12.20;99.90
44886;DHT22;36669;51.428;21.162;2022-09-28T18:18:59;12.20;99.90
44886;DHT22;36669;51.428;21.162;2022-09-28T18:21:24;12.20;99.90
44886;DHT22;36669;51.428;21.162;2022-09-28T18:23:50;12.40;99.90
44886;DHT22;36669;51.428;21.162;2022-09-28T18:26:16;12.40;99.90
44886;DHT22;36669;51.428;21.162;2022-09-28T18:28:41;12.40;99.90
44886;DHT22;36669;51.428;21.162;2022-09-28T18:31:09;12.40;99.90
44886;DHT22;36669;51.428;21.162;2022-09-28T18:33:35;12.40;99.90